sensor_id;sensor_type;location;lat;lon;timestamp;P1;durP1;ratioP1;P2;durP2;ratioP2
84883;SDS011;75145;49.188;8.122;2024-01-30T00:00:52;17.50;;;9.47;;
84883;SDS011;75145;49.188;8.122;2024-01-30T00:03:18;16.23;;;10.20;;
84883;SDS011;75145;49.188;8.122;2024-01-30T00:05:43;17.60;;;10.13;;
84883;SDS011;75145;49.188;8.122;2024-01-30T00:08:08;18.73;;;10.03;;
84883;SDS011;75145;49.188;8.122;2024-01-30T00:10:34;16.33;;;10.23;;
84883;SDS011;75145;49.188;8.122;2024-01-30T00:12:59;16.10;;;9.67;;
84883;SDS011;75145;49.188;8.122;2024-01-30T00:15:24;15.80;;;9.50;;
84883;SDS011;75145;49.188;8.122;2024-01-30T00:17:50;14.57;;;8.77;;
84883;SDS011;75145;49.188;8.122;2024-01-30T00:20:17;17.52;;;9.70;;
84883;SDS011;75145;49.188;8.122;2024-01-30T00:22:43;17.35;;;10.10;;
84883;SDS011;75145;49.188;8.122;2024-01-30T00:25:08;15.18;;;8.80;;
84883;SDS011;75145;49.188;8.122;2024-01-30T00:27:33;15.13;;;9.50;;
84883;SDS011;75145;49.188;8.122;2024-01-30T00:29:59;16.98;;;10.20;;
84883;SDS011;75145;49.188;8.122;2024-01-30T00:32:24;20.13;;;9.70;;
84883;SDS011;75145;49.188;8.122;2024-01-30T00:34:49;14.07;;;9.00;;
84883;SDS011;75145;49.188;8.122;2024-01-30T00:37:15;14.93;;;9.85;;
84883;SDS011;75145;49.188;8.122;2024-01-30T00:39:40;15.83;;;8.87;;
84883;SDS011;75145;49.188;8.122;2024-01-30T00:42:05;14.33;;;8.93;;
84883;SDS011;75145;49.188;8.122;2024-01-30T00:44:31;13.77;;;9.05;;
84883;SDS011;75145;49.188;8.122;2024-01-30T00:46:58;12.57;;;7.97;;
84883;SDS011;75145;49.188;8.122;2024-01-30T00:49:23;14.07;;;9.20;;
84883;SDS011;75145;49.188;8.122;2024-01-30T00:53:03;13.30;;;7.80;;
84883;SDS011;75145;49.188;8.122;2024-01-30T00:55:29;16.53;;;8.63;;
84883;SDS011;75145;49.188;8.122;2024-01-30T00:57:54;13.83;;;8.33;;
84883;SDS011;75145;49.188;8.122;2024-01-30T01:00:19;14.07;;;7.60;;
84883;SDS011;75145;49.188;8.122;2024-01-30T01:02:46;15.57;;;7.55;;
84883;SDS011;75145;49.188;8.122;2024-01-30T01:05:11;13.83;;;8.50;;
84883;SDS011;75145;49.188;8.122;2024-01-30T01:07:36;16.73;;;7.83;;
84883;SDS011;75145;49.188;8.122;2024-01-30T01:10:02;12.10;;;7.67;;
84883;SDS011;75145;49.188;8.122;2024-01-30T01:12:27;14.27;;;7.70;;
84883;SDS011;75145;49.188;8.122;2024-01-30T01:14:53;13.00;;;7.35;;
84883;SDS011;75145;49.188;8.122;2024-01-30T01:17:18;14.03;;;8.40;;
84883;SDS011;75145;49.188;8.122;2024-01-30T01:19:44;16.45;;;7.55;;
84883;SDS011;75145;49.188;8.122;2024-01-30T01:22:09;16.23;;;7.65;;
84883;SDS011;75145;49.188;8.122;2024-01-30T01:24:35;12.25;;;7.45;;
84883;SDS011;75145;49.188;8.122;2024-01-30T01:27:01;12.95;;;7.47;;
84883;SDS011;75145;49.188;8.122;2024-01-30T01:29:26;14.95;;;7.88;;
84883;SDS011;75145;49.188;8.122;2024-01-30T01:31:56;16.42;;;7.38;;
84883;SDS011;75145;49.188;8.122;2024-01-30T01:34:22;12.32;;;7.22;;
84883;SDS011;75145;49.188;8.122;2024-01-30T01:36:51;11.50;;;7.32;;
84883;SDS011;75145;49.188;8.122;2024-01-30T01:39:17;13.48;;;7.13;;
84883;SDS011;75145;49.188;8.122;2024-01-30T01:41:42;15.23;;;7.90;;
84883;SDS011;75145;49.188;8.122;2024-01-30T01:44:08;13.53;;;7.23;;
84883;SDS011;75145;49.188;8.122;2024-01-30T01:46:33;13.18;;;7.30;;
84883;SDS011;75145;49.188;8.122;2024-01-30T01:49:02;10.93;;;6.68;;
84883;SDS011;75145;49.188;8.122;2024-01-30T01:51:31;11.88;;;7.32;;
84883;SDS011;75145;49.188;8.122;2024-01-30T01:53:58;14.00;;;7.28;;
84883;SDS011;75145;49.188;8.122;2024-01-30T01:56:26;13.55;;;7.97;;
84883;SDS011;75145;49.188;8.122;2024-01-30T01:58:54;12.50;;;6.88;;
84883;SDS011;75145;49.188;8.122;2024-01-30T02:01:20;13.45;;;7.88;;
84883;SDS011;75145;49.188;8.122;2024-01-30T02:03:48;14.95;;;7.80;;
84883;SDS011;75145;49.188;8.122;2024-01-30T02:06:13;11.43;;;6.93;;
84883;SDS011;75145;49.188;8.122;2024-01-30T02:08:40;12.75;;;7.13;;
84883;SDS011;75145;49.188;8.122;2024-01-30T02:11:05;15.30;;;7.63;;
84883;SDS011;75145;49.188;8.122;2024-01-30T02:13:30;12.02;;;7.07;;
84883;SDS011;75145;49.188;8.122;2024-01-30T02:15:55;11.77;;;7.00;;
84883;SDS011;75145;49.188;8.122;2024-01-30T02:18:21;14.30;;;8.27;;
84883;SDS011;75145;49.188;8.122;2024-01-30T02:20:47;17.85;;;8.80;;
84883;SDS011;75145;49.188;8.122;2024-01-30T02:23:13;18.42;;;9.02;;
84883;SDS011;75145;49.188;8.122;2024-01-30T02:25:40;16.58;;;9.32;;
84883;SDS011;75145;49.188;8.122;2024-01-30T02:28:10;18.77;;;9.57;;
84883;SDS011;75145;49.188;8.122;2024-01-30T02:30:36;16.95;;;9.20;;
84883;SDS011;75145;49.188;8.122;2024-01-30T02:33:02;18.60;;;8.73;;
84883;SDS011;75145;49.188;8.122;2024-01-30T02:35:27;14.93;;;8.32;;
84883;SDS011;75145;49.188;8.122;2024-01-30T02:37:53;15.75;;;9.07;;
84883;SDS011;75145;49.188;8.122;2024-01-30T02:40:18;21.10;;;9.40;;
84883;SDS011;75145;49.188;8.122;2024-01-30T02:42:43;16.47;;;9.17;;
84883;SDS011;75145;49.188;8.122;2024-01-30T02:45:09;19.98;;;9.57;;
84883;SDS011;75145;49.188;8.122;2024-01-30T02:47:35;16.33;;;10.05;;
84883;SDS011;75145;49.188;8.122;2024-01-30T02:50:01;17.98;;;8.55;;
84883;SDS011;75145;49.188;8.122;2024-01-30T02:52:26;18.65;;;9.43;;
84883;SDS011;75145;49.188;8.122;2024-01-30T02:54:52;14.33;;;8.00;;
84883;SDS011;75145;49.188;8.122;2024-01-30T02:57:17;16.90;;;9.30;;
84883;SDS011;75145;49.188;8.122;2024-01-30T02:59:42;17.00;;;9.67;;
84883;SDS011;75145;49.188;8.122;2024-01-30T03:02:07;16.63;;;9.70;;
84883;SDS011;75145;49.188;8.122;2024-01-30T03:04:33;16.83;;;9.93;;
84883;SDS011;75145;49.188;8.122;2024-01-30T03:06:58;16.83;;;9.73;;
84883;SDS011;75145;49.188;8.122;2024-01-30T03:09:23;14.57;;;9.33;;
84883;SDS011;75145;49.188;8.122;2024-01-30T03:11:49;18.53;;;9.47;;
84883;SDS011;75145;49.188;8.122;2024-01-30T03:14:14;17.80;;;9.87;;
84883;SDS011;75145;49.188;8.122;2024-01-30T03:16:39;17.27;;;9.53;;
84883;SDS011;75145;49.188;8.122;2024-01-30T03:19:08;16.77;;;10.23;;
84883;SDS011;75145;49.188;8.122;2024-01-30T03:21:34;17.13;;;9.63;;
84883;SDS011;75145;49.188;8.122;2024-01-30T03:23:59;17.75;;;9.75;;
84883;SDS011;75145;49.188;8.122;2024-01-30T03:26:25;15.32;;;9.48;;
84883;SDS011;75145;49.188;8.122;2024-01-30T03:28:50;16.52;;;9.60;;
84883;SDS011;75145;49.188;8.122;2024-01-30T03:31:16;18.35;;;9.88;;
84883;SDS011;75145;49.188;8.122;2024-01-30T03:33:42;18.60;;;9.77;;
84883;SDS011;75145;49.188;8.122;2024-01-30T03:36:08;14.50;;;9.15;;
84883;SDS011;75145;49.188;8.122;2024-01-30T03:38:34;16.27;;;9.63;;
84883;SDS011;75145;49.188;8.122;2024-01-30T03:40:59;14.38;;;8.77;;
84883;SDS011;75145;49.188;8.122;2024-01-30T03:43:25;15.82;;;9.63;;
84883;SDS011;75145;49.188;8.122;2024-01-30T03:45:50;18.13;;;9.05;;
84883;SDS011;75145;49.188;8.122;2024-01-30T03:48:16;15.15;;;8.63;;
84883;SDS011;75145;49.188;8.122;2024-01-30T03:50:41;15.20;;;9.07;;
84883;SDS011;75145;49.188;8.122;2024-01-30T03:53:06;18.13;;;8.97;;
84883;SDS011;75145;49.188;8.122;2024-01-30T03:55:32;16.75;;;8.77;;
84883;SDS011;75145;49.188;8.122;2024-01-30T03:57:57;16.73;;;9.10;;
84883;SDS011;75145;49.188;8.122;2024-01-30T04:00:22;16.77;;;8.30;;
84883;SDS011;75145;49.188;8.122;2024-01-30T04:02:48;14.07;;;7.77;;
84883;SDS011;75145;49.188;8.122;2024-01-30T04:05:13;15.07;;;8.73;;
84883;SDS011;75145;49.188;8.122;2024-01-30T04:07:38;14.77;;;8.73;;
84883;SDS011;75145;49.188;8.122;2024-01-30T04:10:04;14.37;;;8.53;;
84883;SDS011;75145;49.188;8.122;2024-01-30T04:12:31;12.68;;;7.90;;
84883;SDS011;75145;49.188;8.122;2024-01-30T04:14:56;16.00;;;9.05;;
84883;SDS011;75145;49.188;8.122;2024-01-30T04:17:22;17.67;;;8.52;;
84883;SDS011;75145;49.188;8.122;2024-01-30T04:19:47;13.88;;;7.57;;
84883;SDS011;75145;49.188;8.122;2024-01-30T04:22:12;14.70;;;7.83;;
84883;SDS011;75145;49.188;8.122;2024-01-30T04:24:38;13.10;;;7.67;;
84883;SDS011;75145;49.188;8.122;2024-01-30T04:27:03;13.70;;;8.43;;
84883;SDS011;75145;49.188;8.122;2024-01-30T04:29:29;13.63;;;7.57;;
84883;SDS011;75145;49.188;8.122;2024-01-30T04:31:54;13.90;;;8.00;;
84883;SDS011;75145;49.188;8.122;2024-01-30T04:34:19;13.43;;;7.77;;
84883;SDS011;75145;49.188;8.122;2024-01-30T04:36:45;13.60;;;6.93;;
84883;SDS011;75145;49.188;8.122;2024-01-30T04:39:11;11.73;;;7.28;;
84883;SDS011;75145;49.188;8.122;2024-01-30T04:41:37;15.65;;;7.82;;
84883;SDS011;75145;49.188;8.122;2024-01-30T04:44:03;12.25;;;7.50;;
84883;SDS011;75145;49.188;8.122;2024-01-30T04:46:28;14.05;;;8.00;;
84883;SDS011;75145;49.188;8.122;2024-01-30T04:48:53;17.63;;;8.10;;
84883;SDS011;75145;49.188;8.122;2024-01-30T04:51:19;16.93;;;8.33;;
84883;SDS011;75145;49.188;8.122;2024-01-30T04:53:44;16.77;;;8.70;;
84883;SDS011;75145;49.188;8.122;2024-01-30T04:56:09;21.15;;;10.07;;
84883;SDS011;75145;49.188;8.122;2024-01-30T04:58:35;15.57;;;9.95;;
84883;SDS011;75145;49.188;8.122;2024-01-30T05:01:01;18.80;;;9.93;;
84883;SDS011;75145;49.188;8.122;2024-01-30T05:03:27;19.13;;;9.10;;
84883;SDS011;75145;49.188;8.122;2024-01-30T05:05:52;18.15;;;9.30;;
84883;SDS011;75145;49.188;8.122;2024-01-30T05:08:18;16.27;;;9.47;;
84883;SDS011;75145;49.188;8.122;2024-01-30T05:10:43;20.60;;;9.77;;
84883;SDS011;75145;49.188;8.122;2024-01-30T05:13:08;18.52;;;11.05;;
84883;SDS011;75145;49.188;8.122;2024-01-30T05:15:34;15.37;;;8.57;;
84883;SDS011;75145;49.188;8.122;2024-01-30T05:17:59;15.10;;;8.57;;
84883;SDS011;75145;49.188;8.122;2024-01-30T05:20:24;17.77;;;9.07;;
84883;SDS011;75145;49.188;8.122;2024-01-30T05:22:53;15.23;;;8.23;;
84883;SDS011;75145;49.188;8.122;2024-01-30T05:25:18;13.38;;;8.60;;
84883;SDS011;75145;49.188;8.122;2024-01-30T05:27:44;14.15;;;8.35;;
84883;SDS011;75145;49.188;8.122;2024-01-30T05:30:09;15.50;;;8.03;;
84883;SDS011;75145;49.188;8.122;2024-01-30T05:32:35;14.98;;;8.23;;
84883;SDS011;75145;49.188;8.122;2024-01-30T05:35:01;16.67;;;9.05;;
84883;SDS011;75145;49.188;8.122;2024-01-30T05:37:26;16.25;;;8.88;;
84883;SDS011;75145;49.188;8.122;2024-01-30T05:39:51;17.85;;;8.82;;
84883;SDS011;75145;49.188;8.122;2024-01-30T05:42:17;18.63;;;9.13;;
84883;SDS011;75145;49.188;8.122;2024-01-30T05:44:42;14.25;;;8.50;;
84883;SDS011;75145;49.188;8.122;2024-01-30T05:47:08;15.27;;;8.20;;
84883;SDS011;75145;49.188;8.122;2024-01-30T05:49:33;15.50;;;8.10;;
84883;SDS011;75145;49.188;8.122;2024-01-30T05:51:59;15.55;;;7.72;;
84883;SDS011;75145;49.188;8.122;2024-01-30T05:54:25;14.10;;;8.15;;
84883;SDS011;75145;49.188;8.122;2024-01-30T05:56:50;12.70;;;8.17;;
84883;SDS011;75145;49.188;8.122;2024-01-30T05:59:15;14.13;;;7.53;;
84883;SDS011;75145;49.188;8.122;2024-01-30T06:01:47;15.00;;;8.57;;
84883;SDS011;75145;49.188;8.122;2024-01-30T06:04:13;16.88;;;8.13;;
84883;SDS011;75145;49.188;8.122;2024-01-30T06:06:38;13.40;;;8.75;;
84883;SDS011;75145;49.188;8.122;2024-01-30T06:09:03;18.30;;;9.83;;
84883;SDS011;75145;49.188;8.122;2024-01-30T06:11:29;18.20;;;10.52;;
84883;SDS011;75145;49.188;8.122;2024-01-30T06:13:54;22.73;;;12.17;;
84883;SDS011;75145;49.188;8.122;2024-01-30T06:16:19;24.87;;;14.23;;
84883;SDS011;75145;49.188;8.122;2024-01-30T06:18:46;22.42;;;10.45;;
84883;SDS011;75145;49.188;8.122;2024-01-30T06:21:12;15.85;;;9.27;;
84883;SDS011;75145;49.188;8.122;2024-01-30T06:23:38;16.35;;;9.70;;
84883;SDS011;75145;49.188;8.122;2024-01-30T06:26:03;15.73;;;9.70;;
84883;SDS011;75145;49.188;8.122;2024-01-30T06:28:28;19.08;;;10.05;;
84883;SDS011;75145;49.188;8.122;2024-01-30T06:30:54;14.37;;;8.87;;
84883;SDS011;75145;49.188;8.122;2024-01-30T06:33:19;16.27;;;9.48;;
84883;SDS011;75145;49.188;8.122;2024-01-30T06:35:45;16.73;;;9.47;;
84883;SDS011;75145;49.188;8.122;2024-01-30T06:38:11;16.67;;;9.43;;
84883;SDS011;75145;49.188;8.122;2024-01-30T06:40:36;18.58;;;9.57;;
84883;SDS011;75145;49.188;8.122;2024-01-30T06:43:02;17.33;;;9.98;;
84883;SDS011;75145;49.188;8.122;2024-01-30T06:45:29;15.65;;;8.82;;
84883;SDS011;75145;49.188;8.122;2024-01-30T06:47:54;15.15;;;8.68;;
84883;SDS011;75145;49.188;8.122;2024-01-30T06:50:19;19.07;;;10.77;;
84883;SDS011;75145;49.188;8.122;2024-01-30T06:52:45;20.60;;;11.82;;
84883;SDS011;75145;49.188;8.122;2024-01-30T06:55:10;23.13;;;12.57;;
84883;SDS011;75145;49.188;8.122;2024-01-30T06:57:36;26.65;;;13.05;;
84883;SDS011;75145;49.188;8.122;2024-01-30T07:00:01;22.33;;;12.30;;
84883;SDS011;75145;49.188;8.122;2024-01-30T07:02:27;17.60;;;11.00;;
84883;SDS011;75145;49.188;8.122;2024-01-30T07:04:52;19.90;;;10.47;;
84883;SDS011;75145;49.188;8.122;2024-01-30T07:07:17;19.55;;;11.23;;
84883;SDS011;75145;49.188;8.122;2024-01-30T07:09:43;21.48;;;11.38;;
84883;SDS011;75145;49.188;8.122;2024-01-30T07:12:08;29.23;;;13.20;;
84883;SDS011;75145;49.188;8.122;2024-01-30T07:14:34;33.22;;;14.45;;
84883;SDS011;75145;49.188;8.122;2024-01-30T07:16:59;22.40;;;14.45;;
84883;SDS011;75145;49.188;8.122;2024-01-30T07:19:24;20.43;;;11.23;;
84883;SDS011;75145;49.188;8.122;2024-01-30T07:21:50;20.20;;;11.43;;
84883;SDS011;75145;49.188;8.122;2024-01-30T07:24:15;25.13;;;12.35;;
84883;SDS011;75145;49.188;8.122;2024-01-30T07:26:41;27.35;;;13.15;;
84883;SDS011;75145;49.188;8.122;2024-01-30T07:29:06;18.75;;;11.30;;
84883;SDS011;75145;49.188;8.122;2024-01-30T07:31:32;21.15;;;10.90;;
84883;SDS011;75145;49.188;8.122;2024-01-30T07:33:57;23.48;;;13.30;;
84883;SDS011;75145;49.188;8.122;2024-01-30T07:36:23;21.75;;;11.90;;
84883;SDS011;75145;49.188;8.122;2024-01-30T07:38:48;21.42;;;11.10;;
84883;SDS011;75145;49.188;8.122;2024-01-30T07:41:14;23.45;;;12.43;;
84883;SDS011;75145;49.188;8.122;2024-01-30T07:43:39;22.55;;;12.10;;
84883;SDS011;75145;49.188;8.122;2024-01-30T07:46:04;19.98;;;11.98;;
84883;SDS011;75145;49.188;8.122;2024-01-30T07:48:31;24.15;;;12.15;;
84883;SDS011;75145;49.188;8.122;2024-01-30T07:50:59;22.67;;;13.00;;
84883;SDS011;75145;49.188;8.122;2024-01-30T07:53:24;21.35;;;11.77;;
84883;SDS011;75145;49.188;8.122;2024-01-30T07:55:50;20.40;;;11.50;;
84883;SDS011;75145;49.188;8.122;2024-01-30T07:58:15;15.68;;;10.13;;
84883;SDS011;75145;49.188;8.122;2024-01-30T08:00:41;20.27;;;10.73;;
84883;SDS011;75145;49.188;8.122;2024-01-30T08:03:06;27.60;;;15.50;;
84883;SDS011;75145;49.188;8.122;2024-01-30T08:05:32;16.60;;;10.20;;
84883;SDS011;75145;49.188;8.122;2024-01-30T08:07:57;20.90;;;11.32;;
84883;SDS011;75145;49.188;8.122;2024-01-30T08:10:23;20.85;;;10.35;;
84883;SDS011;75145;49.188;8.122;2024-01-30T08:12:48;17.95;;;9.93;;
84883;SDS011;75145;49.188;8.122;2024-01-30T08:15:14;16.90;;;9.85;;
84883;SDS011;75145;49.188;8.122;2024-01-30T08:17:39;16.98;;;10.32;;
84883;SDS011;75145;49.188;8.122;2024-01-30T08:20:05;18.10;;;9.48;;
84883;SDS011;75145;49.188;8.122;2024-01-30T08:22:33;15.30;;;9.70;;
84883;SDS011;75145;49.188;8.122;2024-01-30T08:24:58;17.70;;;8.95;;
84883;SDS011;75145;49.188;8.122;2024-01-30T08:27:24;15.60;;;8.50;;
84883;SDS011;75145;49.188;8.122;2024-01-30T08:29:49;16.23;;;8.93;;
84883;SDS011;75145;49.188;8.122;2024-01-30T08:32:15;16.42;;;8.65;;
84883;SDS011;75145;49.188;8.122;2024-01-30T08:34:40;17.25;;;8.55;;
84883;SDS011;75145;49.188;8.122;2024-01-30T08:37:06;12.67;;;7.80;;
84883;SDS011;75145;49.188;8.122;2024-01-30T08:39:31;14.50;;;8.13;;
84883;SDS011;75145;49.188;8.122;2024-01-30T08:41:56;12.30;;;7.67;;
84883;SDS011;75145;49.188;8.122;2024-01-30T08:44:22;13.63;;;7.85;;
84883;SDS011;75145;49.188;8.122;2024-01-30T08:46:48;14.50;;;7.90;;
84883;SDS011;75145;49.188;8.122;2024-01-30T08:49:15;14.50;;;8.45;;
84883;SDS011;75145;49.188;8.122;2024-01-30T08:51:41;14.00;;;7.63;;
84883;SDS011;75145;49.188;8.122;2024-01-30T08:54:07;12.68;;;8.35;;
84883;SDS011;75145;49.188;8.122;2024-01-30T08:56:32;14.00;;;8.40;;
84883;SDS011;75145;49.188;8.122;2024-01-30T08:58:58;13.75;;;9.05;;
84883;SDS011;75145;49.188;8.122;2024-01-30T09:01:24;15.25;;;9.10;;
84883;SDS011;75145;49.188;8.122;2024-01-30T09:03:50;18.27;;;9.77;;
84883;SDS011;75145;49.188;8.122;2024-01-30T09:06:18;16.95;;;10.18;;
84883;SDS011;75145;49.188;8.122;2024-01-30T09:08:45;22.25;;;10.63;;
84883;SDS011;75145;49.188;8.122;2024-01-30T09:11:14;20.03;;;10.23;;
84883;SDS011;75145;49.188;8.122;2024-01-30T09:13:40;22.17;;;10.45;;
84883;SDS011;75145;49.188;8.122;2024-01-30T09:16:06;15.95;;;8.70;;
84883;SDS011;75145;49.188;8.122;2024-01-30T09:18:32;14.43;;;8.35;;
84883;SDS011;75145;49.188;8.122;2024-01-30T09:20:57;17.23;;;8.15;;
84883;SDS011;75145;49.188;8.122;2024-01-30T09:23:23;15.15;;;8.48;;
84883;SDS011;75145;49.188;8.122;2024-01-30T09:25:48;16.33;;;8.70;;
84883;SDS011;75145;49.188;8.122;2024-01-30T09:28:14;16.40;;;9.70;;
84883;SDS011;75145;49.188;8.122;2024-01-30T09:30:39;12.25;;;8.40;;
84883;SDS011;75145;49.188;8.122;2024-01-30T09:33:06;14.02;;;8.88;;
84883;SDS011;75145;49.188;8.122;2024-01-30T09:35:31;16.45;;;9.65;;
84883;SDS011;75145;49.188;8.122;2024-01-30T09:37:57;17.23;;;9.43;;
84883;SDS011;75145;49.188;8.122;2024-01-30T09:40:22;14.90;;;9.65;;
84883;SDS011;75145;49.188;8.122;2024-01-30T09:42:49;13.25;;;8.20;;
84883;SDS011;75145;49.188;8.122;2024-01-30T09:45:15;13.05;;;7.82;;
84883;SDS011;75145;49.188;8.122;2024-01-30T09:47:43;14.82;;;8.65;;
84883;SDS011;75145;49.188;8.122;2024-01-30T09:50:10;15.27;;;9.27;;
84883;SDS011;75145;49.188;8.122;2024-01-30T09:52:37;13.55;;;7.22;;
84883;SDS011;75145;49.188;8.122;2024-01-30T09:55:02;12.87;;;8.23;;
84883;SDS011;75145;49.188;8.122;2024-01-30T09:57:28;11.95;;;6.93;;
84883;SDS011;75145;49.188;8.122;2024-01-30T09:59:54;10.15;;;6.93;;
84883;SDS011;75145;49.188;8.122;2024-01-30T10:02:20;12.70;;;7.28;;
84883;SDS011;75145;49.188;8.122;2024-01-30T10:04:49;9.95;;;6.72;;
84883;SDS011;75145;49.188;8.122;2024-01-30T10:07:15;9.93;;;6.55;;
84883;SDS011;75145;49.188;8.122;2024-01-30T10:09:41;11.07;;;6.40;;
84883;SDS011;75145;49.188;8.122;2024-01-30T10:12:06;9.93;;;6.85;;
84883;SDS011;75145;49.188;8.122;2024-01-30T10:14:33;10.90;;;6.78;;
84883;SDS011;75145;49.188;8.122;2024-01-30T10:16:58;8.77;;;6.70;;
84883;SDS011;75145;49.188;8.122;2024-01-30T10:19:24;13.82;;;6.80;;
84883;SDS011;75145;49.188;8.122;2024-01-30T10:21:49;12.50;;;6.70;;
84883;SDS011;75145;49.188;8.122;2024-01-30T10:24:15;11.05;;;6.53;;
84883;SDS011;75145;49.188;8.122;2024-01-30T10:26:40;12.23;;;7.05;;
84883;SDS011;75145;49.188;8.122;2024-01-30T10:29:08;11.63;;;6.28;;
84883;SDS011;75145;49.188;8.122;2024-01-30T10:31:33;12.27;;;6.67;;
84883;SDS011;75145;49.188;8.122;2024-01-30T10:33:59;10.00;;;6.28;;
84883;SDS011;75145;49.188;8.122;2024-01-30T10:36:26;13.83;;;6.57;;
84883;SDS011;75145;49.188;8.122;2024-01-30T10:38:55;11.00;;;7.20;;
84883;SDS011;75145;49.188;8.122;2024-01-30T10:41:25;11.25;;;7.78;;
84883;SDS011;75145;49.188;8.122;2024-01-30T10:43:58;14.18;;;8.73;;
84883;SDS011;75145;49.188;8.122;2024-01-30T10:46:29;14.10;;;9.32;;
84883;SDS011;75145;49.188;8.122;2024-01-30T10:48:59;15.13;;;9.52;;
84883;SDS011;75145;49.188;8.122;2024-01-30T10:51:26;15.57;;;8.40;;
84883;SDS011;75145;49.188;8.122;2024-01-30T10:53:52;14.02;;;8.88;;
84883;SDS011;75145;49.188;8.122;2024-01-30T10:56:20;12.30;;;8.30;;
84883;SDS011;75145;49.188;8.122;2024-01-30T10:58:47;14.38;;;7.70;;
84883;SDS011;75145;49.188;8.122;2024-01-30T11:01:20;11.55;;;7.90;;
84883;SDS011;75145;49.188;8.122;2024-01-30T11:03:52;14.13;;;7.80;;
84883;SDS011;75145;49.188;8.122;2024-01-30T11:06:22;10.88;;;6.30;;
84883;SDS011;75145;49.188;8.122;2024-01-30T11:09:01;9.38;;;5.63;;
84883;SDS011;75145;49.188;8.122;2024-01-30T11:14:29;9.52;;;5.50;;
84883;SDS011;75145;49.188;8.122;2024-01-30T11:16:58;10.40;;;5.50;;
84883;SDS011;75145;49.188;8.122;2024-01-30T11:19:24;8.55;;;5.32;;
84883;SDS011;75145;49.188;8.122;2024-01-30T11:21:51;8.25;;;5.65;;
84883;SDS011;75145;49.188;8.122;2024-01-30T11:24:21;9.55;;;5.82;;
84883;SDS011;75145;49.188;8.122;2024-01-30T11:26:48;10.65;;;6.18;;
84883;SDS011;75145;49.188;8.122;2024-01-30T11:29:15;9.35;;;6.32;;
84883;SDS011;75145;49.188;8.122;2024-01-30T11:31:51;16.05;;;6.13;;
84883;SDS011;75145;49.188;8.122;2024-01-30T11:34:18;9.20;;;5.43;;
84883;SDS011;75145;49.188;8.122;2024-01-30T11:36:45;7.95;;;5.70;;
84883;SDS011;75145;49.188;8.122;2024-01-30T11:39:18;10.63;;;5.63;;
84883;SDS011;75145;49.188;8.122;2024-01-30T11:41:45;11.75;;;6.38;;
84883;SDS011;75145;49.188;8.122;2024-01-30T11:44:11;13.40;;;6.50;;
84883;SDS011;75145;49.188;8.122;2024-01-30T11:46:36;12.38;;;5.95;;
84883;SDS011;75145;49.188;8.122;2024-01-30T11:49:02;8.27;;;6.28;;
84883;SDS011;75145;49.188;8.122;2024-01-30T11:51:27;11.45;;;6.03;;
84883;SDS011;75145;49.188;8.122;2024-01-30T11:53:53;8.80;;;5.50;;
84883;SDS011;75145;49.188;8.122;2024-01-30T11:56:18;11.90;;;5.85;;
84883;SDS011;75145;49.188;8.122;2024-01-30T11:58:43;7.57;;;5.17;;
84883;SDS011;75145;49.188;8.122;2024-01-30T12:01:10;7.93;;;5.72;;
84883;SDS011;75145;49.188;8.122;2024-01-30T12:03:36;9.48;;;5.50;;
84883;SDS011;75145;49.188;8.122;2024-01-30T12:06:02;10.52;;;5.78;;
84883;SDS011;75145;49.188;8.122;2024-01-30T12:08:28;8.98;;;5.93;;
84883;SDS011;75145;49.188;8.122;2024-01-30T12:10:56;7.75;;;5.40;;
84883;SDS011;75145;49.188;8.122;2024-01-30T12:13:23;8.10;;;5.47;;
84883;SDS011;75145;49.188;8.122;2024-01-30T12:15:50;8.10;;;5.95;;
84883;SDS011;75145;49.188;8.122;2024-01-30T12:18:18;8.32;;;5.47;;
84883;SDS011;75145;49.188;8.122;2024-01-30T12:20:44;12.18;;;5.95;;
84883;SDS011;75145;49.188;8.122;2024-01-30T12:23:09;11.45;;;5.82;;
84883;SDS011;75145;49.188;8.122;2024-01-30T12:25:37;6.95;;;5.22;;
84883;SDS011;75145;49.188;8.122;2024-01-30T12:28:03;14.68;;;6.30;;
84883;SDS011;75145;49.188;8.122;2024-01-30T12:30:29;14.23;;;6.07;;
84883;SDS011;75145;49.188;8.122;2024-01-30T12:32:54;10.13;;;6.03;;
84883;SDS011;75145;49.188;8.122;2024-01-30T12:35:20;8.73;;;5.13;;
84883;SDS011;75145;49.188;8.122;2024-01-30T12:37:46;10.77;;;5.90;;
84883;SDS011;75145;49.188;8.122;2024-01-30T12:40:15;9.02;;;6.15;;
84883;SDS011;75145;49.188;8.122;2024-01-30T12:42:42;11.07;;;6.18;;
84883;SDS011;75145;49.188;8.122;2024-01-30T12:45:08;8.88;;;6.57;;
84883;SDS011;75145;49.188;8.122;2024-01-30T12:47:34;11.55;;;5.90;;
84883;SDS011;75145;49.188;8.122;2024-01-30T12:49:59;11.80;;;6.40;;
84883;SDS011;75145;49.188;8.122;2024-01-30T12:52:25;11.20;;;6.13;;
84883;SDS011;75145;49.188;8.122;2024-01-30T12:54:50;10.13;;;5.68;;
84883;SDS011;75145;49.188;8.122;2024-01-30T12:57:16;10.52;;;5.93;;
84883;SDS011;75145;49.188;8.122;2024-01-30T12:59:43;8.85;;;5.90;;
84883;SDS011;75145;49.188;8.122;2024-01-30T13:02:10;11.15;;;5.65;;
84883;SDS011;75145;49.188;8.122;2024-01-30T13:04:36;12.45;;;6.53;;
84883;SDS011;75145;49.188;8.122;2024-01-30T13:07:02;8.20;;;5.60;;
84883;SDS011;75145;49.188;8.122;2024-01-30T13:09:29;8.98;;;6.00;;
84883;SDS011;75145;49.188;8.122;2024-01-30T13:11:54;10.55;;;6.50;;
84883;SDS011;75145;49.188;8.122;2024-01-30T13:14:20;10.10;;;6.70;;
84883;SDS011;75145;49.188;8.122;2024-01-30T13:16:45;14.00;;;6.73;;
84883;SDS011;75145;49.188;8.122;2024-01-30T13:19:11;9.25;;;6.03;;
84883;SDS011;75145;49.188;8.122;2024-01-30T13:21:36;12.10;;;6.68;;
84883;SDS011;75145;49.188;8.122;2024-01-30T13:24:02;9.85;;;6.43;;
84883;SDS011;75145;49.188;8.122;2024-01-30T13:26:28;10.40;;;6.95;;
84883;SDS011;75145;49.188;8.122;2024-01-30T13:28:53;11.98;;;6.45;;
84883;SDS011;75145;49.188;8.122;2024-01-30T13:31:18;13.30;;;7.00;;
84883;SDS011;75145;49.188;8.122;2024-01-30T13:33:44;10.30;;;6.45;;
84883;SDS011;75145;49.188;8.122;2024-01-30T13:36:10;13.48;;;7.38;;
84883;SDS011;75145;49.188;8.122;2024-01-30T13:38:36;11.80;;;7.55;;
84883;SDS011;75145;49.188;8.122;2024-01-30T13:41:02;12.85;;;7.60;;
84883;SDS011;75145;49.188;8.122;2024-01-30T13:43:28;9.13;;;6.72;;
84883;SDS011;75145;49.188;8.122;2024-01-30T13:45:54;11.70;;;7.20;;
84883;SDS011;75145;49.188;8.122;2024-01-30T13:48:19;11.18;;;6.68;;
84883;SDS011;75145;49.188;8.122;2024-01-30T13:50:44;9.68;;;6.55;;
84883;SDS011;75145;49.188;8.122;2024-01-30T13:53:10;14.32;;;7.07;;
84883;SDS011;75145;49.188;8.122;2024-01-30T13:55:36;10.43;;;6.93;;
84883;SDS011;75145;49.188;8.122;2024-01-30T13:58:01;11.35;;;7.20;;
84883;SDS011;75145;49.188;8.122;2024-01-30T14:00:27;12.18;;;6.63;;
84883;SDS011;75145;49.188;8.122;2024-01-30T14:02:52;14.60;;;7.45;;
84883;SDS011;75145;49.188;8.122;2024-01-30T14:05:22;10.68;;;6.60;;
84883;SDS011;75145;49.188;8.122;2024-01-30T14:07:47;13.63;;;7.28;;
84883;SDS011;75145;49.188;8.122;2024-01-30T14:10:13;10.05;;;6.88;;
84883;SDS011;75145;49.188;8.122;2024-01-30T14:12:39;12.02;;;7.75;;
84883;SDS011;75145;49.188;8.122;2024-01-30T14:15:04;13.37;;;7.50;;
84883;SDS011;75145;49.188;8.122;2024-01-30T14:17:31;12.45;;;7.68;;
84883;SDS011;75145;49.188;8.122;2024-01-30T14:19:56;12.23;;;7.27;;
84883;SDS011;75145;49.188;8.122;2024-01-30T14:22:22;12.13;;;7.10;;
84883;SDS011;75145;49.188;8.122;2024-01-30T14:24:47;12.40;;;7.30;;
84883;SDS011;75145;49.188;8.122;2024-01-30T14:27:12;19.43;;;7.50;;
84883;SDS011;75145;49.188;8.122;2024-01-30T14:29:38;12.93;;;7.78;;